Airfield :
LOGIN :

Register | Disclaimer

   EN    FR    IT 

 










Legend :    VFR   Marginal VFR   IFR   Intensive IFR   Very Intensive IFR
Visi :
Ceiling :
>= 8 km
>= 3000ft
5 to 8 km
1000 to 3000 ft
1500m to 5 km
500 to 1000 ft
800 to 1500m
200 to 500 ft
< 800m
< 200 ft
Symbols :   Thunderstorms  Fog  Heavy snow  Heavy precipitations  Wind > 20 kt
SIGMETs :     Misc.  Thunderstorms  Icing  Turbulence  Mountain Waves  Volcanic Ashes






- Airport Elevation : 90 ft
- IATA code : NTE


LFRS - Nantes

CURRENT METAR :
  • 220000Z AUTO 23016KT 190V260 4100 -RA BR OVC006 13/13 Q1005 TEMPO 2000 RA BKN004 BECMG 22017G32KT

EXPIRED METARs :
  • 212330Z AUTO 23017KT 3200 RA BR OVC006 13/13 Q1006 TEMPO 2000 RA BKN004 BECMG 22017G32KT
  • 212300Z AUTO 23018KT 190V250 3900 -RA BR OVC007 13/13 Q1007 TEMPO 2000 RA BKN004 BECMG 22015G30KT
  • 212230Z AUTO 23016KT 190V260 6000 RA OVC009/// //////TCU 13/12 Q1007 TEMPO 2000 RA BKN004 BECMG 22015G30KT
  • 212200Z AUTO 22016KT 6000 RA OVC008/// //////TCU 13/12 Q1008 TEMPO 2000 RA BKN004 BECMG 22015G30KT
  • 212130Z AUTO 22015G28KT 190V260 5000 RA BR OVC007/// ///TCU 13/12 Q1008 TEMPO 2000 RA BKN004
  • 212100Z AUTO 23016KT 200V260 5000 RA BR OVC007/// ///TCU 13/12 Q1009 TEMPO 2000 RA BKN004 BECMG 22015G30KT
  • 212030Z AUTO 23017G28KT 4100 RA BR BKN006/// OVC010/// //////TCU 13/12 Q1009 TEMPO 2000 RA BKN004
  • 212000Z AUTO 23016KT 5000 RA BR OVC007 13/12 Q1010 TEMPO 2000 RA BKN004 BECMG 22015G30KT
  • 211930Z AUTO 23013KT 4500 RA BR OVC006 13/12 Q1010 TEMPO 2000 RA BKN004 BECMG 22015G30KT
  • 211900Z AUTO 23015KT 200V260 4800 RA BR OVC006 13/12 Q1010 TEMPO 2000 RA BKN004 BECMG 22015G30KT

TAF TAF LFRS
Valid from the 22 at 00:00 until the 23 at 06:00 UTC


212300Z 2200/2306 22017G32KT 9999 -RA OVC009
TEMPO 2200/2210 2000 RA BKN004
BECMG 2206/2208 23020G40KT
BECMG 2210/2212 BKN016
TEMPO 2210/2212 22025G50KT 1200 RA
TEMPO 2212/2224 26025G50KT 4000 SHRA SCT020CB
BECMG 2300/2302 24012KT 4500 -RA
ATIS : +33 2 40 05 12 74



MET'MAP, your aeronautical weather chart ! - Copyright ORBIFLY December 2007 - Disclaimer

ORBIFLY MET'MAP TEAM :

Programming & Development : Alexandra Zaïnal
Original concept : Baudouin d'Aumeries
Technical & hardware support : Manuel Goepfert
Assistance : Marc-Olivier Méhu




SOURCES & CREDITS :

   NOAA